createdAt,value
2019-02-25T00:00:09.753Z,3.55
2019-02-25T00:02:38.609Z,3.44
2019-02-25T00:05:05.821Z,3.31
2019-02-25T00:07:33.321Z,3.24
2019-02-25T00:10:00.292Z,3.20
2019-02-25T00:12:29.922Z,3.12
2019-02-25T00:14:56.858Z,3.17
2019-02-25T00:17:23.800Z,3.26
2019-02-25T00:19:50.765Z,3.18
2019-02-25T00:22:18.077Z,3.15
2019-02-25T00:24:45.732Z,2.94
2019-02-25T00:27:12.679Z,2.70
2019-02-25T00:29:39.977Z,2.48
2019-02-25T00:32:07.372Z,2.46
2019-02-25T00:34:34.322Z,2.39
2019-02-25T00:37:01.297Z,2.48
2019-02-25T00:39:28.266Z,2.57
2019-02-25T00:41:55.212Z,2.62
2019-02-25T00:44:23.881Z,2.54
2019-02-25T00:46:52.077Z,2.38
2019-02-25T00:49:19.014Z,2.31
2019-02-25T00:51:46.098Z,2.47
2019-02-25T00:54:13.045Z,2.64
2019-02-25T00:56:40.000Z,2.82
2019-02-25T00:59:07.439Z,2.89
2019-02-25T01:01:34.404Z,2.83
2019-02-25T01:04:04.920Z,2.82
2019-02-25T01:06:31.893Z,2.51
2019-02-25T01:08:58.867Z,2.41
2019-02-25T01:11:25.824Z,2.22
2019-02-25T01:13:53.101Z,2.08
2019-02-25T01:16:20.040Z,2.23
2019-02-25T01:18:46.996Z,2.43
2019-02-25T01:21:14.291Z,2.60
2019-02-25T01:23:41.235Z,2.45
2019-02-25T01:26:09.284Z,2.41
2019-02-25T01:28:36.241Z,2.45
2019-02-25T01:31:03.606Z,2.51
2019-02-25T01:33:30.674Z,2.52
2019-02-25T01:35:57.676Z,2.54
2019-02-25T01:38:24.909Z,2.46
2019-02-25T01:40:51.892Z,2.46
2019-02-25T01:43:18.855Z,2.50
2019-02-25T01:45:45.812Z,2.45
2019-02-25T01:48:12.759Z,2.49
2019-02-25T01:50:39.716Z,2.28
2019-02-25T01:53:07.107Z,2.17
2019-02-25T01:55:34.042Z,2.25
2019-02-25T01:58:00.992Z,2.41
2019-02-25T02:00:27.951Z,2.62
2019-02-25T02:02:54.892Z,2.77
2019-02-25T02:05:21.871Z,2.81
2019-02-25T02:07:48.810Z,2.89
2019-02-25T02:10:16.403Z,2.98
2019-02-25T02:12:43.505Z,3.01
2019-02-25T02:15:12.361Z,3.07
2019-02-25T02:17:39.623Z,2.96
2019-02-25T02:20:07.276Z,3.00
2019-02-25T02:22:34.206Z,2.96
2019-02-25T02:25:01.233Z,3.06
2019-02-25T02:27:28.218Z,3.12
2019-02-25T02:29:55.367Z,3.14
2019-02-25T02:32:22.647Z,2.99
2019-02-25T02:34:49.630Z,2.86
2019-02-25T02:37:16.574Z,2.72
2019-02-25T02:39:43.961Z,2.65
2019-02-25T02:42:13.184Z,2.60
2019-02-25T02:44:40.725Z,2.44
2019-02-25T02:47:33.643Z,2.30
2019-02-25T02:50:00.609Z,2.23
2019-02-25T02:52:27.620Z,2.12
2019-02-25T02:54:54.696Z,2.12
2019-02-25T02:57:21.666Z,2.12
2019-02-25T02:59:49.010Z,2.27
2019-02-25T03:02:16.104Z,2.27
2019-02-25T03:04:43.042Z,2.34
2019-02-25T03:07:09.993Z,2.47
2019-02-25T03:09:37.006Z,2.44
2019-02-25T03:12:03.948Z,2.51
2019-02-25T03:14:31.182Z,2.58
2019-02-25T03:16:58.213Z,2.56
2019-02-25T03:19:25.206Z,2.53
2019-02-25T03:21:54.418Z,2.52
2019-02-25T03:24:21.384Z,2.54
2019-02-25T03:26:48.331Z,2.51
2019-02-25T03:29:15.511Z,2.43
2019-02-25T03:31:42.963Z,2.53
2019-02-25T03:34:09.917Z,2.49
2019-02-25T03:36:36.877Z,2.50
2019-02-25T03:39:05.712Z,2.74
2019-02-25T03:41:32.870Z,2.75
2019-02-25T03:43:59.872Z,2.63
2019-02-25T03:46:26.842Z,2.56
2019-02-25T03:48:53.832Z,2.43
2019-02-25T03:51:20.790Z,2.46
2019-02-25T03:53:48.104Z,2.43
2019-02-25T03:56:15.139Z,2.29
2019-02-25T03:58:42.079Z,2.31
2019-02-25T04:01:09.257Z,2.36
2019-02-25T04:03:36.413Z,2.42
2019-02-25T04:06:03.666Z,2.39
2019-02-25T04:08:30.696Z,2.21
2019-02-25T04:10:57.991Z,2.43
2019-02-25T04:13:24.952Z,2.41
2019-02-25T04:15:52.007Z,2.35
2019-02-25T04:18:19.314Z,2.14
2019-02-25T04:20:46.292Z,2.19
2019-02-25T04:23:13.261Z,2.16
2019-02-25T04:25:40.221Z,2.10
2019-02-25T04:28:07.163Z,1.91
2019-02-25T04:30:34.783Z,1.82
2019-02-25T04:33:02.120Z,1.70
2019-02-25T04:35:29.048Z,1.58
2019-02-25T04:37:56.217Z,1.74
2019-02-25T04:40:23.619Z,1.79
2019-02-25T04:42:50.609Z,1.85
2019-02-25T04:45:17.541Z,1.85
2019-02-25T04:47:44.483Z,2.09
2019-02-25T04:50:12.016Z,2.07
2019-02-25T04:52:39.017Z,1.91
2019-02-25T04:55:06.520Z,1.87
2019-02-25T04:57:33.763Z,1.85
2019-02-25T05:00:00.746Z,1.74
2019-02-25T05:02:27.693Z,1.72
2019-02-25T05:04:54.638Z,1.91
2019-02-25T05:07:21.640Z,2.09
2019-02-25T05:09:48.603Z,2.14
2019-02-25T05:12:15.944Z,2.19
2019-02-25T05:14:42.918Z,2.25
2019-02-25T05:17:10.035Z,2.23
2019-02-25T05:19:37.379Z,2.10
2019-02-25T05:22:04.369Z,1.89
2019-02-25T05:24:31.350Z,1.85
2019-02-25T05:26:58.291Z,1.75
2019-02-25T05:29:25.591Z,1.80
2019-02-25T05:31:52.516Z,1.83
2019-02-25T05:34:19.463Z,1.88
2019-02-25T05:36:46.865Z,1.89
2019-02-25T05:39:13.814Z,2.12
2019-02-25T05:41:40.805Z,2.21
2019-02-25T05:44:08.576Z,1.98
2019-02-25T05:46:35.719Z,1.80
2019-02-25T05:49:02.660Z,1.84
2019-02-25T05:51:30.100Z,1.81
2019-02-25T05:53:57.038Z,1.74
2019-02-25T05:56:24.042Z,1.78
2019-02-25T05:58:51.412Z,1.83
2019-02-25T06:01:18.379Z,1.83
2019-02-25T06:03:45.330Z,1.98
2019-02-25T06:06:12.294Z,0.94
2019-02-25T06:08:39.626Z,0.86
2019-02-25T06:11:06.601Z,0.65
2019-02-25T06:13:34.037Z,0.54
2019-02-25T06:16:01.010Z,0.58
2019-02-25T06:18:27.947Z,0.58
2019-02-25T06:20:55.320Z,0.51
2019-02-25T06:23:22.261Z,0.53
2019-02-25T06:25:49.210Z,0.57
2019-02-25T06:28:16.659Z,0.68
2019-02-25T06:30:43.593Z,0.67
2019-02-25T06:33:10.528Z,0.74
2019-02-25T06:35:37.481Z,0.76
2019-02-25T06:38:04.444Z,0.93
2019-02-25T06:40:31.382Z,0.91
2019-02-25T06:42:58.810Z,0.87
2019-02-25T06:45:25.853Z,1.12
2019-02-25T06:47:52.780Z,1.29
2019-02-25T06:50:20.781Z,1.38
2019-02-25T06:52:47.726Z,1.68
2019-02-25T06:55:14.896Z,1.97
2019-02-25T06:57:42.255Z,2.33
2019-02-25T07:00:12.305Z,2.52
2019-02-25T07:02:40.253Z,2.59
2019-02-25T07:05:19.671Z,2.73
2019-02-25T07:07:51.833Z,2.92
2019-02-25T07:10:37.498Z,2.94
2019-02-25T07:13:22.290Z,3.01
2019-02-25T07:16:09.357Z,3.16
2019-02-25T07:18:58.483Z,3.03
2019-02-25T07:21:37.953Z,3.34
2019-02-25T07:24:17.477Z,3.49
2019-02-25T07:26:50.771Z,3.66
2019-02-25T07:29:32.577Z,3.89
2019-02-25T07:32:14.964Z,4.31
2019-02-25T07:34:47.249Z,4.71
2019-02-25T07:37:34.040Z,4.94
2019-02-25T07:40:13.818Z,4.93
2019-02-25T07:43:12.855Z,5.00
2019-02-25T07:46:02.198Z,5.07
2019-02-25T07:48:47.456Z,5.59
2019-02-25T07:51:49.128Z,5.95
2019-02-25T07:54:31.319Z,6.20
2019-02-25T07:57:20.767Z,5.98
2019-02-25T08:00:25.851Z,6.07
2019-02-25T08:03:18.275Z,5.96
2019-02-25T08:06:23.572Z,6.15
2019-02-25T08:09:17.637Z,6.46
2019-02-25T08:12:09.194Z,6.60
2019-02-25T08:15:09.057Z,6.54
2019-02-25T08:17:59.317Z,6.91
2019-02-25T08:20:44.773Z,6.85
2019-02-25T08:23:31.835Z,7.13
2019-02-25T08:26:16.955Z,6.98
2019-02-25T08:28:53.459Z,7.16
2019-02-25T08:31:58.227Z,7.35
2019-02-25T08:34:57.349Z,7.13
2019-02-25T08:37:54.283Z,7.59
2019-02-25T08:40:40.849Z,7.82
2019-02-25T08:43:22.557Z,7.77
2019-02-25T08:46:00.861Z,7.74
2019-02-25T08:48:34.397Z,7.79
2019-02-25T08:51:01.365Z,7.87
2019-02-25T08:53:29.907Z,7.96
2019-02-25T08:55:58.365Z,8.76
2019-02-25T08:58:25.597Z,9.22
2019-02-25T09:00:52.549Z,8.98
2019-02-25T09:03:19.483Z,9.15
2019-02-25T09:05:46.513Z,9.34
2019-02-25T09:08:13.816Z,9.84
2019-02-25T09:10:40.864Z,9.86
2019-02-25T09:13:08.068Z,9.95
2019-02-25T09:15:35.008Z,10.03
2019-02-25T09:18:00.974Z,10.30
2019-02-25T09:20:27.968Z,10.31
2019-02-25T09:22:54.904Z,10.09
2019-02-25T09:25:21.849Z,10.34
2019-02-25T09:27:48.899Z,10.68
2019-02-25T09:30:16.163Z,11.36
2019-02-25T09:32:43.433Z,11.92
2019-02-25T09:35:11.124Z,11.73
2019-02-25T09:37:38.209Z,12.10
2019-02-25T09:40:07.072Z,13.15
2019-02-25T09:42:34.838Z,12.52
2019-02-25T09:45:01.802Z,13.42
2019-02-25T09:47:29.358Z,14.36
2019-02-25T09:49:56.656Z,13.74
2019-02-25T09:52:23.579Z,14.92
2019-02-25T09:54:50.527Z,15.12
2019-02-25T09:57:17.935Z,16.10
2019-02-25T09:59:44.896Z,14.44
2019-02-25T10:02:11.836Z,15.15
2019-02-25T10:04:39.210Z,15.85
2019-02-25T10:07:06.136Z,16.15
2019-02-25T10:09:33.104Z,16.03
2019-02-25T10:12:01.503Z,18.19
2019-02-25T10:14:28.472Z,16.79
2019-02-25T10:16:55.419Z,17.54
2019-02-25T10:19:22.380Z,16.94
2019-02-25T10:21:49.333Z,18.01
2019-02-25T10:24:16.335Z,18.30
2019-02-25T10:26:43.736Z,16.96
2019-02-25T10:29:10.685Z,17.97
2019-02-25T10:31:39.572Z,19.37
2019-02-25T10:34:07.681Z,19.40
2019-02-25T10:36:36.388Z,20.31
2019-02-25T10:39:09.082Z,21.41
2019-02-25T10:41:37.169Z,21.02
2019-02-25T10:44:04.852Z,22.07
2019-02-25T10:46:32.973Z,21.42
2019-02-25T10:49:10.958Z,20.87
2019-02-25T10:51:28.894Z,21.31
2019-02-25T10:53:55.882Z,23.24
2019-02-25T10:56:27.615Z,21.80
2019-02-25T10:58:54.553Z,21.93
2019-02-25T11:01:22.361Z,22.32
2019-02-25T11:03:52.189Z,22.30
2019-02-25T11:06:19.311Z,22.92
2019-02-25T11:08:51.176Z,22.05
2019-02-25T11:11:23.221Z,23.21
2019-02-25T11:13:50.837Z,23.84
2019-02-25T11:16:19.861Z,24.30
2019-02-25T11:18:46.702Z,26.46
2019-02-25T11:21:13.704Z,24.46
2019-02-25T11:23:42.900Z,21.85
2019-02-25T11:26:09.865Z,21.36
2019-02-25T11:28:39.180Z,21.96
2019-02-25T11:31:05.866Z,23.32
2019-02-25T11:33:34.357Z,24.29
2019-02-25T11:36:01.616Z,23.90
2019-02-25T11:38:30.514Z,22.49
2019-02-25T11:41:31.735Z,22.49
2019-02-25T11:44:31.033Z,23.88
2019-02-25T11:46:57.089Z,25.26
2019-02-25T11:49:24.033Z,26.58
2019-02-25T11:51:50.985Z,26.92
2019-02-25T11:54:17.982Z,27.46
2019-02-25T11:56:45.437Z,27.18
2019-02-25T11:59:12.387Z,27.47
2019-02-25T12:01:39.336Z,26.41
2019-02-25T12:04:06.686Z,26.97
2019-02-25T12:06:33.633Z,26.61
2019-02-25T12:09:03.104Z,27.66
2019-02-25T12:11:32.294Z,27.69
2019-02-25T12:13:59.252Z,28.05
2019-02-25T12:16:26.267Z,26.40
2019-02-25T12:18:53.594Z,26.83
2019-02-25T12:21:20.552Z,27.47
2019-02-25T12:23:49.579Z,27.60
2019-02-25T12:26:16.543Z,29.18
2019-02-25T12:28:43.906Z,29.31
2019-02-25T12:31:11.213Z,27.56
2019-02-25T12:33:38.203Z,27.88
2019-02-25T12:36:05.157Z,28.19
2019-02-25T12:38:32.131Z,30.24
2019-02-25T12:40:59.075Z,29.32
2019-02-25T12:43:26.081Z,28.81
2019-02-25T12:45:54.711Z,29.39
2019-02-25T12:48:22.814Z,29.43
2019-02-25T12:50:49.851Z,25.76
2019-02-25T12:53:16.889Z,26.23
2019-02-25T12:55:43.824Z,26.67
2019-02-25T12:58:10.870Z,27.29
2019-02-25T13:00:37.833Z,29.95
2019-02-25T13:03:04.819Z,28.48
2019-02-25T13:05:31.786Z,27.64
2019-02-25T13:07:58.813Z,29.05
2019-02-25T13:10:26.378Z,28.12
2019-02-25T13:12:53.568Z,28.16
2019-02-25T13:15:20.661Z,27.97
2019-02-25T13:17:47.988Z,29.86
2019-02-25T13:20:15.104Z,30.89
2019-02-25T13:22:42.398Z,27.79
2019-02-25T13:25:11.220Z,26.33
2019-02-25T13:27:39.370Z,26.01
2019-02-25T13:30:09.878Z,27.36
2019-02-25T13:32:36.831Z,28.14
2019-02-25T13:35:03.900Z,27.81
2019-02-25T13:37:31.000Z,26.71
2019-02-25T13:39:59.905Z,26.17
2019-02-25T13:42:27.042Z,26.63
2019-02-25T13:44:54.188Z,27.98
2019-02-25T13:47:21.605Z,30.86
2019-02-25T13:49:49.395Z,29.26
2019-02-25T13:52:16.362Z,29.81
2019-02-25T13:54:43.729Z,29.25
2019-02-25T13:57:10.723Z,30.22
2019-02-25T13:59:37.685Z,31.38
2019-02-25T14:02:04.925Z,32.25
2019-02-25T14:04:32.062Z,32.60
2019-02-25T14:06:59.341Z,32.32
2019-02-25T14:09:26.720Z,33.33
2019-02-25T14:11:53.961Z,36.13
2019-02-25T14:14:20.973Z,35.44
2019-02-25T14:16:50.009Z,32.90
2019-02-25T14:19:17.081Z,28.86
2019-02-25T14:21:44.256Z,30.22
2019-02-25T14:24:13.169Z,30.77
2019-02-25T14:26:40.104Z,31.65
2019-02-25T14:29:07.099Z,30.80
2019-02-25T14:31:34.320Z,33.48
2019-02-25T14:34:01.260Z,32.06
2019-02-25T14:36:28.376Z,32.66
2019-02-25T14:38:56.386Z,30.98
2019-02-25T14:41:24.655Z,28.73
2019-02-25T14:43:53.760Z,27.57
2019-02-25T14:46:24.356Z,29.47
2019-02-25T14:48:50.826Z,30.50
2019-02-25T14:51:17.990Z,33.79
2019-02-25T14:53:46.950Z,34.93
2019-02-25T14:56:15.727Z,34.45
2019-02-25T14:58:43.793Z,32.32
2019-02-25T15:01:12.072Z,32.30
2019-02-25T15:03:39.148Z,30.45
2019-02-25T15:06:06.189Z,30.09
2019-02-25T15:08:37.478Z,27.95
2019-02-25T15:11:37.765Z,28.51
2019-02-25T15:14:05.919Z,29.33
2019-02-25T15:16:34.509Z,28.77
2019-02-25T15:19:01.561Z,27.49
2019-02-25T15:21:28.614Z,27.52
2019-02-25T15:24:00.058Z,28.17
2019-02-25T15:26:28.073Z,26.49
2019-02-25T15:29:02.853Z,26.75
2019-02-25T15:31:35.607Z,27.39
2019-02-25T15:34:05.179Z,29.85
2019-02-25T15:36:32.419Z,29.82
2019-02-25T15:38:59.596Z,29.76
2019-02-25T15:41:26.540Z,29.49
2019-02-25T15:43:59.828Z,29.18
2019-02-25T15:46:27.032Z,26.00
2019-02-25T15:48:59.690Z,25.68
2019-02-25T15:51:28.479Z,27.70
2019-02-25T15:53:59.817Z,27.55
2019-02-25T15:56:31.933Z,26.98
2019-02-25T15:59:08.270Z,26.93
2019-02-25T16:01:37.032Z,26.27
2019-02-25T16:04:04.680Z,24.43
2019-02-25T16:06:34.065Z,24.72
2019-02-25T16:09:03.545Z,24.57
2019-02-25T16:11:36.652Z,25.57
2019-02-25T16:14:04.493Z,24.42
2019-02-25T16:16:33.463Z,23.37
2019-02-25T16:19:00.586Z,22.40
2019-02-25T16:21:27.612Z,22.45
2019-02-25T16:23:54.966Z,23.14
2019-02-25T16:26:22.609Z,22.11
2019-02-25T16:28:50.496Z,21.84
2019-02-25T16:31:19.988Z,21.25
2019-02-25T16:33:49.084Z,20.94
2019-02-25T16:36:21.904Z,20.12
2019-02-25T16:38:55.719Z,19.23
2019-02-25T16:41:27.364Z,18.32
2019-02-25T16:43:51.228Z,17.86
2019-02-25T16:46:20.209Z,17.77
2019-02-25T16:48:48.405Z,17.67
2019-02-25T16:51:18.934Z,17.52
2019-02-25T16:53:49.804Z,16.68
2019-02-25T16:56:15.072Z,15.95
2019-02-25T16:58:42.376Z,15.95
2019-02-25T17:01:10.941Z,15.77
2019-02-25T17:03:39.751Z,15.58
2019-02-25T17:06:09.209Z,15.39
2019-02-25T17:08:36.513Z,15.37
2019-02-25T17:11:04.132Z,15.41
2019-02-25T17:13:33.070Z,15.54
2019-02-25T17:16:02.742Z,15.48
2019-02-25T17:18:31.252Z,15.27
2019-02-25T17:20:59.084Z,14.92
2019-02-25T17:23:32.302Z,14.86
2019-02-25T17:26:01.810Z,14.46
2019-02-25T17:28:28.778Z,14.53
2019-02-25T17:30:56.351Z,14.81
2019-02-25T17:33:24.118Z,14.90
2019-02-25T17:35:54.084Z,14.66
2019-02-25T17:38:23.032Z,14.06
2019-02-25T17:40:50.618Z,13.86
2019-02-25T17:43:18.441Z,14.00
2019-02-25T17:45:47.422Z,14.05
2019-02-25T17:48:18.662Z,14.03
2019-02-25T17:50:46.650Z,13.93
2019-02-25T17:53:14.004Z,13.74
2019-02-25T17:55:41.397Z,13.65
2019-02-25T17:58:08.478Z,13.53
2019-02-25T18:00:39.436Z,13.34
2019-02-25T18:03:07.184Z,13.25
2019-02-25T18:05:35.941Z,13.19
2019-02-25T18:08:05.313Z,12.92
2019-02-25T18:10:38.168Z,12.88
2019-02-25T18:13:10.436Z,12.89
2019-02-25T18:15:37.619Z,12.88
2019-02-25T18:18:07.044Z,12.76
2019-02-25T18:20:34.019Z,12.56
2019-02-25T18:23:01.521Z,12.29
2019-02-25T18:25:28.644Z,12.12
2019-02-25T18:27:55.625Z,11.84
2019-02-25T18:30:25.175Z,11.90
2019-02-25T18:32:52.660Z,11.69
2019-02-25T18:35:22.845Z,11.70
2019-02-25T18:37:49.866Z,11.71
2019-02-25T18:40:18.997Z,11.66
2019-02-25T18:42:46.274Z,11.55
2019-02-25T18:45:16.009Z,11.45
2019-02-25T18:47:43.491Z,11.39
2019-02-25T18:50:15.178Z,11.31
2019-02-25T18:52:41.931Z,11.22
2019-02-25T18:55:11.150Z,11.26
2019-02-25T18:57:41.701Z,11.34
2019-02-25T19:00:13.377Z,11.18
2019-02-25T19:02:42.983Z,11.01
2019-02-25T19:05:13.606Z,10.94
2019-02-25T19:07:39.042Z,10.89
2019-02-25T19:10:06.277Z,10.83
2019-02-25T19:12:33.665Z,10.74
2019-02-25T19:15:03.092Z,10.69
2019-02-25T19:17:31.954Z,10.61
2019-02-25T19:19:59.105Z,10.50
2019-02-25T19:22:27.261Z,10.36
2019-02-25T19:24:54.202Z,10.22
2019-02-25T19:27:21.230Z,10.16
2019-02-25T19:29:49.380Z,9.95
2019-02-25T19:32:20.935Z,9.67
2019-02-25T19:34:54.035Z,9.63
2019-02-25T19:37:21.073Z,9.65
2019-02-25T19:39:50.420Z,9.68
2019-02-25T19:42:18.149Z,9.71
2019-02-25T19:44:46.673Z,9.85
2019-02-25T19:47:14.378Z,9.81
2019-02-25T19:49:43.560Z,9.79
2019-02-25T19:52:12.157Z,9.96
2019-02-25T19:54:40.858Z,9.94
2019-02-25T19:57:11.522Z,9.72
2019-02-25T19:59:38.578Z,9.76
2019-02-25T20:02:07.910Z,9.72
2019-02-25T20:04:35.964Z,9.53
2019-02-25T20:07:04.235Z,9.61
2019-02-25T20:09:31.566Z,9.61
2019-02-25T20:12:01.339Z,9.56
2019-02-25T20:14:31.338Z,9.38
2019-02-25T20:16:58.191Z,9.26
2019-02-25T20:19:25.183Z,9.11
2019-02-25T20:21:54.709Z,8.91
2019-02-25T20:24:23.801Z,8.97
2019-02-25T20:26:55.086Z,8.83
2019-02-25T20:29:20.692Z,8.55
2019-02-25T20:31:49.622Z,8.48
2019-02-25T20:34:20.331Z,8.51
2019-02-25T20:36:46.477Z,8.45
2019-02-25T20:39:14.380Z,8.42
2019-02-25T20:41:43.277Z,8.35
2019-02-25T20:44:10.655Z,8.31
2019-02-25T20:46:38.661Z,8.14
2019-02-25T20:49:06.152Z,8.03
2019-02-25T20:51:33.788Z,7.97
2019-02-25T20:54:02.054Z,7.93
2019-02-25T20:56:31.023Z,7.93
2019-02-25T20:58:58.982Z,7.78
2019-02-25T21:01:27.494Z,7.76
2019-02-25T21:03:55.252Z,7.71
2019-02-25T21:06:24.261Z,7.78
2019-02-25T21:08:51.238Z,8.10
2019-02-25T21:11:18.201Z,8.28
2019-02-25T21:13:47.578Z,8.32
2019-02-25T21:16:16.183Z,8.21
2019-02-25T21:18:44.391Z,8.14
2019-02-25T21:21:14.415Z,8.21
2019-02-25T21:23:41.442Z,8.21
2019-02-25T21:26:09.318Z,8.17
2019-02-25T21:28:38.130Z,7.84
2019-02-25T21:31:10.989Z,7.58
2019-02-25T21:33:35.032Z,7.74
2019-02-25T21:36:02.366Z,7.98
2019-02-25T21:38:32.837Z,7.95
2019-02-25T21:40:59.859Z,8.08
2019-02-25T21:43:29.078Z,8.04
2019-02-25T21:45:56.647Z,7.95
2019-02-25T21:48:27.520Z,7.76
2019-02-25T21:50:54.214Z,7.58
2019-02-25T21:53:23.056Z,7.40
2019-02-25T21:55:51.101Z,7.19
2019-02-25T21:58:21.264Z,7.03
2019-02-25T22:00:47.851Z,7.12
2019-02-25T22:03:17.323Z,7.20
2019-02-25T22:05:44.047Z,7.15
2019-02-25T22:08:11.005Z,7.00
2019-02-25T22:10:39.859Z,6.99
2019-02-25T22:13:11.691Z,6.98
2019-02-25T22:15:40.794Z,7.05
2019-02-25T22:18:11.440Z,6.96
2019-02-25T22:20:39.836Z,6.81
2019-02-25T22:23:08.043Z,6.78
2019-02-25T22:25:35.227Z,6.74
2019-02-25T22:28:07.582Z,6.48
2019-02-25T22:30:34.582Z,6.34
2019-02-25T22:33:03.005Z,6.41
2019-02-25T22:35:33.247Z,6.48
2019-02-25T22:38:00.514Z,6.56
2019-02-25T22:40:30.080Z,6.40
2019-02-25T22:42:58.908Z,6.39
2019-02-25T22:45:27.892Z,6.35
2019-02-25T22:47:54.844Z,6.23
2019-02-25T22:50:21.993Z,6.11
2019-02-25T22:52:51.607Z,6.06
2019-02-25T22:55:20.187Z,6.18
2019-02-25T22:57:50.911Z,6.19
2019-02-25T23:00:27.998Z,6.25
2019-02-25T23:02:56.915Z,6.38
2019-02-25T23:05:25.520Z,6.25
2019-02-25T23:07:54.558Z,6.19
2019-02-25T23:10:24.004Z,6.18
2019-02-25T23:12:50.734Z,5.97
2019-02-25T23:15:18.298Z,5.40
2019-02-25T23:17:46.598Z,4.99
2019-02-25T23:20:13.572Z,4.85
2019-02-25T23:22:40.549Z,4.43
2019-02-25T23:25:08.081Z,4.31
2019-02-25T23:27:36.618Z,4.69
2019-02-25T23:30:08.413Z,5.11
2019-02-25T23:32:33.817Z,5.27
2019-02-25T23:35:00.803Z,5.18
2019-02-25T23:37:27.785Z,5.16
2019-02-25T23:39:54.729Z,5.20
2019-02-25T23:42:21.673Z,5.16
2019-02-25T23:44:48.675Z,5.04
2019-02-25T23:47:15.714Z,4.92
2019-02-25T23:49:43.860Z,4.87
2019-02-25T23:52:12.844Z,5.13
2019-02-25T23:54:43.370Z,5.41
2019-02-25T23:57:08.778Z,5.47
2019-02-25T23:59:36.093Z,4.98
